Time;durP1;ratioP1;P1;durP2;ratioP2;P2;SDS_P1;SDS_P2;PMS_P1;PMS_P2;Temp;Humidity;BMP_temperature;BMP_pressure;BME280_temperature;BME280_humidity;BME280_pressure;Samples;Min_cycle;Max_cycle;Signal;HPM_P1;HPM_P2
2022/06/19 00:00:13;;;;;;;8.02;2.60;;;;;;;;;;4992102;28;20053;-89
2022/06/19 00:02:40;;;;;;;10.38;2.88;;;;;;;17.75;79.44;68750.09;5022632;28;20044;-89
2022/06/19 00:05:07;;;;;;;7.90;2.63;;;;;;;17.79;79.59;68756.78;5004231;28;20048;-89
2022/06/19 00:07:32;;;;;;;6.65;2.35;;;;;;;17.74;79.36;68748.94;5030230;28;20050;-89
2022/06/19 00:09:58;;;;;;;8.02;2.75;;;;;;;17.60;79.73;68733.53;5010026;28;20197;-89
2022/06/19 00:12:24;;;;;;;9.90;2.63;;;;;;;17.70;80.02;68741.69;5020561;28;20524;-89
2022/06/19 00:14:49;;;;;;;7.13;2.33;;;;;;;17.76;79.46;68747.97;5006334;28;20041;-88
2022/06/19 00:17:15;;;;;;;7.65;2.70;;;;;;;17.71;79.49;68745.50;5002425;28;20124;-90
2022/06/19 00:19:41;;;;;;;10.00;2.80;;;;;;;17.66;79.75;68736.53;5023619;28;20041;-90
2022/06/19 00:22:06;;;;;;;12.10;2.83;;;;;;;17.60;80.47;68730.84;5007081;28;20524;-89
2022/06/19 00:24:32;;;;;;;10.00;2.85;;;;;;;17.43;81.33;68713.56;5012789;28;20037;-90
2022/06/19 00:26:58;;;;;;;8.23;2.65;;;;;;;17.54;80.69;68723.41;5028419;28;20041;-90
2022/06/19 00:29:23;;;;;;;8.63;2.40;;;;;;;17.44;81.05;68712.03;5028954;28;20045;-89
2022/06/19 00:31:49;;;;;;;9.32;2.88;;;;;;;17.41;81.36;68711.28;5026696;28;20046;-89
2022/06/19 00:34:14;;;;;;;10.07;2.50;;;;;;;17.33;81.94;68695.22;5030768;28;20049;-91
2022/06/19 00:36:40;;;;;;;10.45;2.38;;;;;;;;;;5027473;28;20091;-92
2022/06/19 00:39:05;;;;;;;9.65;2.58;;;;;;;17.37;81.75;68704.59;5013484;28;20044;-91
2022/06/19 00:41:34;;;;;;;8.48;2.50;;;;;;;17.31;81.72;68698.31;5008946;28;20107;-89
2022/06/19 00:44:06;;;;;;;8.43;2.30;;;;;;;17.35;81.75;68708.28;4994658;28;20033;-89
2022/06/19 00:46:54;;;;;;;10.73;2.42;;;;;;;;;;5008667;28;20103;-89
2022/06/19 00:49:38;;;;;;;8.18;2.40;;;;;;;17.30;81.89;68697.19;4995162;28;20235;-90
2022/06/19 00:52:21;;;;;;;9.40;2.47;;;;;;;17.21;82.09;68686.91;4990217;28;20057;-88
2022/06/19 00:55:13;;;;;;;8.00;2.53;;;;;;;17.23;82.52;68689.19;5020150;28;20037;-88
2022/06/19 00:57:42;;;;;;;11.50;2.70;;;;;;;17.12;82.68;68679.34;5010411;28;20042;-89
2022/06/19 01:00:24;;;;;;;11.13;2.72;;;;;;;17.11;82.52;68675.50;5020864;28;20514;-89
2022/06/19 01:02:52;;;;;;;10.07;2.45;;;;;;;17.00;82.81;68668.31;4990760;28;20038;-90
2022/06/19 01:05:18;;;;;;;7.13;2.58;;;;;;;16.87;83.50;68651.97;4994683;28;20058;-88
2022/06/19 01:07:44;;;;;;;8.68;2.75;;;;;;;;;;5013132;28;20393;-89
2022/06/19 01:10:12;;;;;;;10.30;2.67;;;;;;;;;;5010347;28;20041;-89
2022/06/19 01:12:39;;;;;;;11.17;2.87;;;;;;;16.95;82.79;68657.84;5008765;28;20041;-89
2022/06/19 01:15:09;;;;;;;12.82;2.88;;;;;;;16.79;83.03;68640.13;5028009;28;20112;-89
2022/06/19 01:17:35;;;;;;;9.80;2.55;;;;;;;16.77;83.08;68640.53;5012552;28;20045;-90
2022/06/19 01:20:04;;;;;;;12.20;2.67;;;;;;;;;;5010321;28;20041;-89
2022/06/19 01:22:44;;;;;;;14.38;2.53;;;;;;;16.70;82.39;68630.44;5001001;28;20497;-89
2022/06/19 01:25:15;;;;;;;9.32;2.60;;;;;;;16.62;82.49;68623.41;4981087;28;20038;-89
2022/06/19 01:30:32;;;;;;;11.60;3.03;;;;;;;16.60;81.37;68618.44;5029702;28;20523;-90
2022/06/19 01:32:59;;;;;;;7.68;2.20;;;;;;;16.51;81.05;68611.44;5027079;28;20684;-89
2022/06/19 01:35:28;;;;;;;10.02;2.60;;;;;;;16.40;81.22;68596.81;5025964;28;20041;-91
2022/06/19 01:37:55;;;;;;;9.90;2.42;;;;;;;16.50;80.54;68601.69;5027855;28;20044;-90
2022/06/19 01:40:23;;;;;;;8.32;2.72;;;;;;;;;;5029537;28;20623;-90
2022/06/19 01:42:48;;;;;;;11.93;2.65;;;;;;;16.24;81.39;68573.19;5027951;28;20125;-90
2022/06/19 01:45:15;;;;;;;10.13;2.60;;;;;;;16.25;79.84;68579.69;5027951;28;20065;-88
2022/06/19 01:47:41;;;;;;;8.57;2.33;;;;;;;16.26;79.42;68582.97;5026277;28;20468;-90
2022/06/19 01:50:10;;;;;;;9.95;2.40;;;;;;;16.29;77.46;68584.25;5012231;28;20042;-90
2022/06/19 01:52:36;;;;;;;11.60;2.67;;;;;;;16.20;77.13;68574.00;5015695;28;20513;-94
2022/06/19 01:55:08;;;;;;;10.63;2.50;;;;;;;16.19;76.83;68572.84;5000532;28;20042;-91
2022/06/19 01:57:37;;;;;;;9.05;2.22;;;;;;;16.06;76.22;68558.59;5021855;28;20128;-92
2022/06/19 02:00:08;;;;;;;8.70;2.40;;;;;;;16.12;75.94;68564.88;5023171;28;20034;-90
2022/06/19 02:02:35;;;;;;;8.82;2.40;;;;;;;16.11;75.90;68558.34;5007383;28;20131;-91
2022/06/19 02:05:01;;;;;;;9.00;2.28;;;;;;;16.06;75.83;68558.59;5024794;28;20087;-90
2022/06/19 02:07:28;;;;;;;8.07;2.55;;;;;;;15.94;75.59;68548.19;5023815;28;20041;-90
2022/06/19 02:09:54;;;;;;;8.05;2.58;;;;;;;15.96;75.14;68547.78;5007417;28;20069;-90
2022/06/19 02:12:22;;;;;;;6.78;2.15;;;;;;;15.92;73.55;68543.22;5008347;28;20091;-90
2022/06/19 02:14:49;;;;;;;11.23;3.35;;;;;;;15.82;74.70;68526.44;5006000;28;20053;-90
2022/06/19 02:17:16;;;;;;;10.30;2.35;;;;;;;;;;5008377;28;20072;-90
2022/06/19 02:19:42;;;;;;;12.80;2.58;;;;;;;;;;5008622;28;20045;-90
2022/06/19 02:22:12;;;;;;;10.77;3.38;;;;;;;;;;5025303;28;20041;-89
2022/06/19 02:24:39;;;;;;;11.52;2.60;;;;;;;15.60;75.84;68506.75;5024811;28;20038;-89
2022/06/19 02:27:05;;;;;;;13.57;2.53;;;;;;;15.56;76.49;68508.09;5027852;28;20038;-90
2022/06/19 02:32:38;;;;;;;12.15;2.90;;;;;;;;;;4960933;28;20117;-91
2022/06/19 02:35:05;;;;;;;11.93;2.60;;;;;;;15.48;76.21;68485.59;4970092;28;20042;-93
2022/06/19 02:37:37;;;;;;;10.82;2.70;;;;;;;15.38;76.76;68488.16;4975744;28;20046;-91
2022/06/19 02:40:19;;;;;;;12.18;2.50;;;;;;;15.41;76.43;68485.66;4979954;28;20145;-92
2022/06/19 02:42:47;;;;;;;9.93;2.88;;;;;;;15.34;77.35;68480.94;4975182;28;20054;-92
2022/06/19 02:45:33;;;;;;;8.73;2.65;;;;;;;15.29;77.44;68477.91;4976018;28;20038;-90
2022/06/19 02:48:00;;;;;;;13.52;3.55;;;;;;;15.27;77.97;68470.28;4965842;28;20043;-90
2022/06/19 02:50:34;;;;;;;15.98;3.78;;;;;;;15.23;78.46;68468.41;4952079;28;20055;-91
2022/06/19 02:53:00;;;;;;;12.48;3.33;;;;;;;15.30;77.77;68476.94;4979910;28;20214;-92
2022/06/19 02:55:27;;;;;;;11.07;2.90;;;;;;;15.21;77.66;68469.38;4971109;28;20679;-91
2022/06/19 02:57:53;;;;;;;18.67;3.28;;;;;;;15.30;77.22;68473.69;4972941;28;20053;-89
2022/06/19 03:00:22;;;;;;;14.43;3.50;;;;;;;15.43;75.99;68488.50;4958484;28;20043;-90
2022/06/19 03:02:54;;;;;;;12.25;3.15;;;;;;;15.26;75.91;68469.13;4959215;28;20046;-90
2022/06/19 03:05:23;;;;;;;13.77;3.58;;;;;;;15.09;75.59;68450.34;5008356;28;20056;-89
2022/06/19 03:07:48;;;;;;;13.10;2.63;;;;;;;;;;5012641;28;20076;-90
2022/06/19 03:10:14;;;;;;;12.23;2.50;;;;;;;;;;5010109;28;20038;-88
2022/06/19 03:12:39;;;;;;;13.88;2.65;;;;;;;15.08;72.05;68455.13;5025214;28;20041;-90
2022/06/19 03:15:06;;;;;;;11.32;2.60;;;;;;;15.14;71.62;68458.72;5031111;28;20026;-88
2022/06/19 03:17:31;;;;;;;9.68;2.47;;;;;;;15.19;71.11;68461.16;5029505;28;20060;-88
2022/06/19 03:19:56;;;;;;;9.98;2.20;;;;;;;15.18;70.99;68460.59;5017344;28;20034;-89
2022/06/19 03:22:22;;;;;;;11.55;2.72;;;;;;;15.11;71.05;68453.19;4999252;28;20049;-89
2022/06/19 03:24:48;;;;;;;14.45;2.97;;;;;;;15.04;70.70;68445.22;5021808;28;20092;-89
2022/06/19 03:27:14;;;;;;;10.02;2.63;;;;;;;15.06;70.91;68450.16;5012233;28;20053;-89
2022/06/19 03:29:39;;;;;;;12.57;2.75;;;;;;;15.12;70.88;68457.00;5022426;28;20068;-89
2022/06/19 03:32:06;;;;;;;10.63;2.42;;;;;;;15.05;71.36;68446.34;5006034;28;20041;-88
2022/06/19 03:34:32;;;;;;;11.18;2.67;;;;;;;15.13;72.54;68460.25;5019022;28;20057;-89
2022/06/19 03:36:58;;;;;;;12.57;2.97;;;;;;;15.05;72.58;68446.34;4991954;28;20042;-89
2022/06/19 03:39:24;;;;;;;13.45;2.97;;;;;;;15.06;73.92;68452.84;5018647;28;20094;-90
2022/06/19 03:41:50;;;;;;;10.48;2.80;;;;;;;15.06;74.52;68446.94;5008791;28;20183;-90
2022/06/19 03:44:15;;;;;;;12.50;2.85;;;;;;;14.98;75.65;68440.50;5023332;28;20126;-90
2022/06/19 03:46:41;;;;;;;14.80;3.38;;;;;;;14.93;75.60;68435.34;5010655;28;20855;-90
2022/06/19 03:49:08;;;;;;;13.63;2.97;;;;;;;14.90;75.67;68429.25;5023675;28;20034;-88
2022/06/19 03:51:34;;;;;;;13.25;3.28;;;;;;;14.82;76.52;68422.84;5011795;28;20142;-90
2022/06/19 03:53:59;;;;;;;16.40;3.33;;;;;;;14.95;76.37;68434.97;5027929;28;20037;-89
2022/06/19 03:56:28;;;;;;;16.55;2.90;;;;;;;14.90;75.77;68429.25;5030148;28;20033;-90
2022/06/19 03:58:53;;;;;;;13.77;2.90;;;;;;;14.88;75.79;68427.56;5029181;28;20037;-90
2022/06/19 04:01:20;;;;;;;15.27;2.85;;;;;;;14.92;75.90;68431.53;5010446;28;20045;-89
2022/06/19 04:03:47;;;;;;;13.40;3.50;;;;;;;14.86;75.88;68430.63;5020444;28;20041;-88
2022/06/19 04:06:14;;;;;;;16.05;3.45;;;;;;;14.79;76.21;68422.69;5013509;28;20046;-85
2022/06/19 04:08:40;;;;;;;15.65;3.13;;;;;;;14.73;76.70;68413.16;5013605;28;20033;-86
2022/06/19 04:11:07;;;;;;;12.90;3.08;;;;;;;14.72;77.32;68409.34;5018132;28;20505;-87
2022/06/19 04:13:34;;;;;;;14.20;2.95;;;;;;;14.76;76.61;68413.91;5003823;28;20521;-87
2022/06/19 04:16:01;;;;;;;11.00;2.95;;;;;;;14.81;76.70;68419.03;5019634;28;20048;-90
2022/06/19 04:18:26;;;;;;;8.65;2.75;;;;;;;14.79;76.01;68419.44;5014039;28;20041;-90
2022/06/19 04:20:52;;;;;;;10.63;2.55;;;;;;;14.85;75.59;68423.59;5023688;28;20042;-88
2022/06/19 04:23:17;;;;;;;10.35;2.60;;;;;;;14.76;75.36;68419.25;5005532;28;20103;-88
2022/06/19 04:25:44;;;;;;;12.30;2.60;;;;;;;14.82;74.80;68426.09;5011884;28;20042;-89
2022/06/19 04:28:10;;;;;;;9.25;2.17;;;;;;;14.94;73.00;68436.50;5011156;28;20050;-90
2022/06/19 04:30:37;;;;;;;13.05;2.22;;;;;;;14.93;72.14;68434.78;5028954;28;20126;-90
2022/06/19 04:33:02;;;;;;;12.95;2.47;;;;;;;14.84;72.42;68423.00;5015703;28;20038;-89
2022/06/19 04:35:28;;;;;;;6.20;1.90;;;;;;;14.84;70.73;68423.00;5009188;28;20108;-89
2022/06/19 04:37:54;;;;;;;8.75;2.15;;;;;;;14.79;71.45;68417.31;5007157;28;20092;-90
2022/06/19 04:40:19;;;;;;;9.88;2.15;;;;;;;14.84;71.25;68417.06;4990837;28;20045;-90
2022/06/19 04:42:45;;;;;;;13.05;2.55;;;;;;;14.88;70.50;68429.69;5007990;28;20089;-90
2022/06/19 04:45:11;;;;;;;9.02;2.30;;;;;;;14.79;70.69;68416.75;4993484;28;20041;-89
2022/06/19 04:47:36;;;;;;;10.10;2.58;;;;;;;14.87;70.24;68425.84;5009032;28;20038;-89
2022/06/19 04:50:02;;;;;;;8.35;2.00;;;;;;;14.81;70.77;68419.59;5008143;28;20400;-90
2022/06/19 04:52:27;;;;;;;7.68;1.80;;;;;;;;;;4991337;28;20488;-89
2022/06/19 04:54:53;;;;;;;8.75;1.80;;;;;;;15.00;70.31;68440.66;5028598;28;20057;-88
2022/06/19 04:57:18;;;;;;;9.32;2.05;;;;;;;14.99;69.67;68441.63;5027902;28;20045;-90
2022/06/19 04:59:43;;;;;;;7.85;2.15;;;;;;;14.93;70.10;68435.34;5029079;28;20124;-89
2022/06/19 05:02:13;;;;;;;5.43;2.15;;;;;;;14.95;70.56;68439.75;5018566;28;20046;-88
2022/06/19 05:04:39;;;;;;;8.30;1.98;;;;;;;14.98;70.72;68441.06;5006883;28;20474;-88
2022/06/19 05:07:04;;;;;;;11.98;2.60;;;;;;;15.02;71.18;68445.63;5008277;28;20140;-88
2022/06/19 05:09:30;;;;;;;9.35;1.95;;;;;;;15.09;71.05;68453.59;4990079;28;20764;-88
2022/06/19 05:11:55;;;;;;;11.50;2.70;;;;;;;15.08;71.89;68449.78;5008252;28;20041;-86
2022/06/19 05:14:21;;;;;;;8.77;2.13;;;;;;;15.25;71.93;68468.00;5018897;28;20061;-87
2022/06/19 05:16:47;;;;;;;9.73;2.45;;;;;;;15.26;71.80;68474.50;5012614;28;20041;-88
2022/06/19 05:19:13;;;;;;;17.80;2.53;;;;;;;15.38;72.35;68482.81;5003256;28;20041;-88
2022/06/19 05:21:38;;;;;;;16.17;2.83;;;;;;;15.38;72.88;68482.22;5003188;28;20634;-88
2022/06/19 05:24:04;;;;;;;10.00;2.33;;;;;;;15.39;73.54;68483.38;5021509;28;20564;-87
2022/06/19 05:26:33;;;;;;;10.98;2.47;;;;;;;15.39;73.94;68486.06;5007680;28;20100;-88
2022/06/19 05:28:59;;;;;;;12.73;3.08;;;;;;;15.44;73.85;68491.75;5014687;28;20057;-88
2022/06/19 05:31:26;;;;;;;10.80;2.13;;;;;;;15.54;74.15;68501.03;5006504;28;20100;-90
2022/06/19 05:33:52;;;;;;;10.73;2.70;;;;;;;15.62;73.21;68509.00;5021571;28;20572;-91
2022/06/19 05:36:18;;;;;;;7.78;1.83;;;;;;;15.68;73.24;68516.44;5006726;28;20095;-89
2022/06/19 05:38:43;;;;;;;16.33;2.92;;;;;;;15.65;73.55;68513.00;5005829;28;20041;-88
2022/06/19 05:41:09;;;;;;;14.05;2.88;;;;;;;15.75;72.71;68523.84;5001436;28;20045;-88
2022/06/19 05:43:35;;;;;;;8.70;2.05;;;;;;;15.81;72.74;68533.38;5005262;28;20047;-88
2022/06/19 05:46:08;;;;;;;12.80;2.55;;;;;;;15.90;71.53;68540.38;5012766;28;20121;-88
2022/06/19 05:48:34;;;;;;;12.00;2.40;;;;;;;15.88;71.04;68538.09;5006203;28;20103;-89
2022/06/19 05:51:07;;;;;;;16.25;2.50;;;;;;;15.91;71.11;68542.09;5003728;28;20076;-88
2022/06/19 05:53:42;;;;;;;13.13;2.72;;;;;;;15.97;70.49;68551.59;5015953;28;20038;-88
2022/06/19 05:56:08;;;;;;;9.95;2.03;;;;;;;16.00;70.09;68551.78;5000820;28;20045;-89
2022/06/19 05:58:35;;;;;;;8.52;1.85;;;;;;;16.02;70.71;68554.03;5005344;28;20107;-88
2022/06/19 06:01:01;;;;;;;11.23;2.47;;;;;;;;;;5005181;28;20128;-88
2022/06/19 06:03:26;;;;;;;9.82;2.05;;;;;;;16.20;70.66;68576.69;5024745;28;20046;-88
2022/06/19 06:05:52;;;;;;;7.63;2.10;;;;;;;16.19;70.51;68572.84;5006478;28;20041;-87
2022/06/19 06:08:19;;;;;;;13.02;2.33;;;;;;;16.22;70.39;68579.53;5008325;28;20045;-88
2022/06/19 06:10:44;;;;;;;9.40;2.10;;;;;;;;;;5023371;28;20037;-88
2022/06/19 06:13:10;;;;;;;13.10;2.63;;;;;;;16.31;70.38;68586.53;5009029;28;20048;-88
2022/06/19 06:15:35;;;;;;;11.18;1.95;;;;;;;16.41;70.37;68597.94;5015013;28;20034;-87
2022/06/19 06:18:02;;;;;;;13.40;2.72;;;;;;;16.41;69.75;68600.06;5020491;28;20905;-87
2022/06/19 06:20:28;;;;;;;15.05;2.55;;;;;;;16.55;69.81;68615.44;5005918;28;20052;-87
2022/06/19 06:22:54;;;;;;;11.43;2.55;;;;;;;;;;5006835;28;20612;-88
2022/06/19 06:25:19;;;;;;;11.57;2.47;;;;;;;16.75;69.63;68638.25;5026405;28;20048;-88
2022/06/19 06:27:45;;;;;;;9.80;2.20;;;;;;;16.76;69.72;68636.72;5008201;28;20037;-87
2022/06/19 06:30:12;;;;;;;10.77;2.72;;;;;;;16.87;70.55;68649.28;5002379;28;20711;-88
2022/06/19 06:32:37;;;;;;;13.38;3.50;;;;;;;16.92;69.12;68654.97;5004847;28;20532;-88
2022/06/19 06:35:04;;;;;;;13.10;2.90;;;;;;;16.99;68.89;68662.38;5003799;28;20133;-88
2022/06/19 06:37:29;;;;;;;14.35;2.65;;;;;;;17.03;68.75;68666.38;5015309;28;20042;-89
2022/06/19 06:39:54;;;;;;;13.20;2.72;;;;;;;;;;5004022;28;20117;-88
2022/06/19 06:42:20;;;;;;;13.27;2.83;;;;;;;17.24;68.63;68690.34;5006907;28;20149;-88
2022/06/19 06:44:45;;;;;;;11.85;2.40;;;;;;;17.31;68.00;68692.38;4993848;28;20041;-86
2022/06/19 06:47:10;;;;;;;11.30;2.90;;;;;;;17.23;67.91;68689.19;5007717;28;20057;-86
2022/06/19 06:49:36;;;;;;;14.93;2.95;;;;;;;17.30;68.87;68697.19;5025400;28;20045;-86
2022/06/19 06:52:01;;;;;;;10.73;2.20;;;;;;;;;;5025456;28;20049;-86
2022/06/19 06:54:27;;;;;;;8.85;2.80;;;;;;;17.58;68.41;68728.56;5018262;28;20125;-86
2022/06/19 06:56:54;;;;;;;11.70;2.25;;;;;;;17.73;67.86;68744.53;5006598;28;20029;-86
2022/06/19 06:59:20;;;;;;;12.65;2.80;;;;;;;17.84;67.94;68757.13;5022335;28;20037;-89
2022/06/19 07:01:45;;;;;;;10.02;2.53;;;;;;;17.85;65.85;68758.25;5002332;28;20037;-87
2022/06/19 07:04:10;;;;;;;9.15;2.70;;;;;;;;;;5017262;28;20041;-87
2022/06/19 07:06:36;;;;;;;11.90;2.67;;;;;;;17.49;67.41;68717.72;5005621;28;20079;-88
2022/06/19 07:09:02;;;;;;;9.57;2.60;;;;;;;17.49;67.82;68721.00;5024514;28;20767;-87
2022/06/19 07:11:35;;;;;;;9.85;2.63;;;;;;;17.50;66.74;68719.44;5026630;28;20468;-88
2022/06/19 07:14:00;;;;;;;10.75;2.45;;;;;;;;;;5023815;28;20412;-91
2022/06/19 07:16:26;;;;;;;11.10;2.25;;;;;;;17.77;66.79;68749.66;5009560;28;20672;-88
2022/06/19 07:18:52;;;;;;;8.68;2.22;;;;;;;;;;5026094;28;20048;-88
2022/06/19 07:21:17;;;;;;;11.65;2.83;;;;;;;17.81;66.63;68753.69;5009267;28;20050;-89
2022/06/19 07:23:43;;;;;;;10.00;2.70;;;;;;;;;;5008336;28;20045;-90
2022/06/19 07:26:13;;;;;;;10.65;2.42;;;;;;;17.63;66.04;68733.69;5025686;28;20053;-88
2022/06/19 07:28:41;;;;;;;11.18;2.60;;;;;;;17.66;66.92;68737.09;5031446;28;20038;-88
2022/06/19 07:31:06;;;;;;;10.07;2.40;;;;;;;17.67;66.47;68737.69;5028987;28;20038;-88
2022/06/19 07:33:33;;;;;;;10.32;2.67;;;;;;;17.77;66.64;68749.66;5007770;28;20115;-89
2022/06/19 07:35:59;;;;;;;9.98;2.35;;;;;;;;;;5008853;28;20041;-88
2022/06/19 07:38:24;;;;;;;7.53;2.13;;;;;;;18.18;65.31;68795.38;4988079;28;20527;-89
2022/06/19 07:40:50;;;;;;;9.25;2.72;;;;;;;18.03;64.13;68778.22;4992027;28;20064;-88
2022/06/19 07:43:15;;;;;;;9.63;2.15;;;;;;;17.87;65.00;68754.59;5007659;28;20037;-87
2022/06/19 07:45:41;;;;;;;11.90;2.92;;;;;;;;;;5009437;28;20133;-89
2022/06/19 07:50:50;;;;;;;9.40;2.17;;;;;;;17.67;66.02;68738.25;5018960;28;20078;-88
2022/06/19 07:53:16;;;;;;;8.07;2.13;;;;;;;;;;5026056;28;20634;-88
2022/06/19 07:55:42;;;;;;;14.45;2.90;;;;;;;17.74;65.44;68746.25;5012239;28;20037;-88
2022/06/19 07:58:08;;;;;;;9.98;2.10;;;;;;;17.75;65.04;68746.81;5011471;28;20037;-88
2022/06/19 08:00:34;;;;;;;10.27;2.75;;;;;;;;;;5029385;28;20100;-88
2022/06/19 08:03:00;;;;;;;9.88;2.67;;;;;;;17.81;65.35;68754.25;5027391;28;20132;-88
2022/06/19 08:05:29;;;;;;;13.07;2.40;;;;;;;17.78;65.26;68744.88;5029326;28;20148;-88
2022/06/19 08:07:54;;;;;;;9.20;2.72;;;;;;;;;;5011340;28;20045;-88
2022/06/19 08:10:28;;;;;;;12.27;2.20;;;;;;;17.80;65.31;68753.09;5029528;28;20564;-88
2022/06/19 08:12:54;;;;;;;10.75;2.38;;;;;;;17.77;64.83;68749.66;5025270;28;20063;-86
2022/06/19 08:15:21;;;;;;;11.02;2.25;;;;;;;17.73;66.33;68745.09;5029583;28;20091;-88
2022/06/19 08:17:48;;;;;;;8.43;2.33;;;;;;;17.86;65.12;68759.38;5011466;28;20056;-88
2022/06/19 08:20:16;;;;;;;10.43;2.10;;;;;;;17.90;66.03;68763.41;5012921;28;20370;-89
2022/06/19 08:22:42;;;;;;;9.80;2.03;;;;;;;17.91;65.22;68759.72;5030895;28;20061;-88
2022/06/19 08:25:09;;;;;;;10.93;2.38;;;;;;;17.86;64.02;68758.81;5012208;28;20053;-88
2022/06/19 08:27:37;;;;;;;9.15;2.42;;;;;;;17.73;64.18;68739.16;5012823;28;20037;-88
2022/06/19 08:30:04;;;;;;;9.52;2.03;;;;;;;;;;5012070;28;20431;-87
2022/06/19 08:32:29;;;;;;;7.40;1.95;;;;;;;;;;5012258;28;20072;-89
2022/06/19 08:34:54;;;;;;;9.77;2.43;;;;;;;;;;5029539;28;20064;-89
2022/06/19 08:37:19;;;;;;;6.07;1.63;;;;;;;17.74;62.38;68745.69;5012050;28;20316;-88
2022/06/19 08:39:46;;;;;;;7.57;2.47;;;;;;;17.75;61.86;68742.00;5011478;28;20276;-88
2022/06/19 08:42:18;;;;;;;6.18;1.58;;;;;;;17.76;60.94;68739.88;5029846;28;20050;-87
2022/06/19 08:45:21;;;;;;;7.28;1.65;;;;;;;17.74;60.47;68746.25;5010012;28;20041;-89
2022/06/19 08:48:09;;;;;;;9.25;1.80;;;;;;;;;;4999471;28;20520;-89
2022/06/19 08:50:40;;;;;;;5.65;1.40;;;;;;;;;;4964135;28;20045;-89
2022/06/19 08:53:32;;;;;;;5.57;1.40;;;;;;;17.40;61.75;68710.13;5007164;28;20073;-88
2022/06/19 08:55:57;;;;;;;10.77;1.60;;;;;;;17.25;63.42;68694.16;4978816;28;20044;-91
2022/06/19 08:58:26;;;;;;;4.50;1.08;;;;;;;;;;5002746;28;20045;-87
2022/06/19 09:01:26;;;;;;;6.83;1.33;;;;;;;17.09;65.53;68673.22;5008133;28;20405;-88
2022/06/19 09:06:50;;;;;;;7.93;2.20;;;;;;;17.18;64.65;68683.50;5009305;28;20061;-88
2022/06/19 09:09:28;;;;;;;5.95;1.63;;;;;;;16.79;65.30;68645.50;4990941;28;20038;-88
2022/06/19 09:12:11;;;;;;;7.25;1.90;;;;;;;16.63;67.87;68621.88;4998920;28;20129;-87
2022/06/19 09:14:50;;;;;;;10.85;2.45;;;;;;;16.67;69.56;68626.44;5011757;28;20037;-88
2022/06/19 09:17:21;;;;;;;8.45;2.05;;;;;;;;;;4993324;28;20048;-88
2022/06/19 09:19:56;;;;;;;7.05;1.95;;;;;;;16.25;72.32;68579.69;5026354;28;20072;-88
2022/06/19 09:23:13;;;;;;;9.15;2.13;;;;;;;16.08;73.12;68563.00;5009953;28;20041;-87
2022/06/19 09:25:50;;;;;;;8.45;1.90;;;;;;;15.95;74.52;68546.63;4956410;28;20469;-88
2022/06/19 09:28:28;;;;;;;12.20;2.30;;;;;;;15.91;75.83;68544.19;5007287;28;20041;-88
2022/06/19 09:31:25;;;;;;;11.10;2.20;;;;;;;15.78;76.14;68521.91;5010587;28;20052;-90
2022/06/19 09:34:20;;;;;;;9.73;2.50;;;;;;;15.46;78.02;68491.91;4990540;28;20048;-89
2022/06/19 09:36:54;;;;;;;11.90;2.58;;;;;;;15.48;80.50;68494.19;4993742;28;20046;-89
2022/06/19 09:39:22;;;;;;;8.40;2.50;;;;;;;15.41;81.45;68485.66;4973263;28;20056;-88
2022/06/19 09:42:10;;;;;;;12.18;2.50;;;;;;;15.33;83.74;68482.47;5011804;28;20072;-87
2022/06/19 09:44:48;;;;;;;12.57;2.55;;;;;;;;;;5019965;28;20038;-87
2022/06/19 09:47:24;;;;;;;9.95;2.50;;;;;;;;;;5012076;28;21314;-89
2022/06/19 09:49:57;;;;;;;8.95;2.22;;;;;;;15.49;82.85;68495.34;5004310;28;20049;-88
2022/06/19 09:52:30;;;;;;;13.13;2.80;;;;;;;;;;5005889;28;20465;-89
2022/06/19 09:55:06;;;;;;;9.80;2.63;;;;;;;15.35;84.61;68482.06;5014581;28;20052;-88
2022/06/19 09:57:37;;;;;;;12.20;3.08;;;;;;;15.24;86.11;68467.41;5008016;28;20091;-87
2022/06/19 10:00:09;;;;;;;13.63;3.15;;;;;;;15.26;88.07;68469.69;5009735;28;20125;-88
2022/06/19 10:02:38;;;;;;;12.13;3.65;;;;;;;15.30;87.98;68473.69;5027005;28;20120;-88
2022/06/19 10:05:18;;;;;;;10.05;2.60;;;;;;;15.16;86.65;68457.75;5009579;28;20053;-87
2022/06/19 10:07:55;;;;;;;13.38;3.15;;;;;;;15.45;88.61;68490.78;5018184;28;20689;-88
2022/06/19 10:10:40;;;;;;;12.68;2.95;;;;;;;15.65;87.96;68521.06;5018482;28;20103;-88
2022/06/19 10:13:28;;;;;;;7.05;2.30;;;;;;;;;;5021369;28;20041;-88
2022/06/19 10:15:55;;;;;;;9.85;2.88;;;;;;;15.81;84.24;68530.69;5007661;28;20056;-88
2022/06/19 10:18:37;;;;;;;11.80;2.63;;;;;;;15.75;84.90;68523.84;5027821;28;20045;-88
2022/06/19 10:24:43;;;;;;;10.52;3.30;;;;;;;15.84;84.71;68536.22;5029290;28;20052;-89
2022/06/19 10:27:37;;;;;;;10.70;2.70;;;;;;;16.12;83.27;68565.44;5005086;28;20042;-88
2022/06/19 10:30:22;;;;;;;9.23;2.78;;;;;;;16.28;81.82;68585.78;4982267;28;20138;-89
2022/06/19 10:33:09;;;;;;;9.38;2.40;;;;;;;;;;4997073;28;20053;-89
2022/06/19 10:35:58;;;;;;;11.18;2.50;;;;;;;16.69;81.36;68629.28;5006824;28;20515;-88
2022/06/19 10:38:32;;;;;;;10.70;2.88;;;;;;;16.66;81.86;68631.25;4975693;28;20528;-89
2022/06/19 10:41:04;;;;;;;12.57;3.22;;;;;;;16.82;81.13;68643.00;4988567;28;20060;-89
2022/06/19 10:43:45;;;;;;;11.10;3.42;;;;;;;16.76;80.56;68636.72;5004724;28;20712;-89
2022/06/19 10:46:15;;;;;;;12.65;3.88;;;;;;;16.72;80.05;68634.84;5009221;28;20629;-89
2022/06/19 10:48:40;;;;;;;10.00;2.78;;;;;;;;;;5016791;28;20072;-89
2022/06/19 10:51:24;;;;;;;9.75;2.63;;;;;;;;;;5008817;28;20934;-89
2022/06/19 10:54:02;;;;;;;9.65;2.65;;;;;;;;;;5005509;28;20037;-89
2022/06/19 10:56:36;;;;;;;10.45;2.25;;;;;;;;;;5003152;28;20045;-89
2022/06/19 10:59:04;;;;;;;9.90;2.05;;;;;;;17.41;75.90;68711.84;5009354;28;20045;-89
2022/06/19 11:04:34;;;;;;;9.60;2.70;;;;;;;17.70;73.93;68741.69;5030637;28;20099;-87
2022/06/19 11:07:13;;;;;;;12.15;2.88;;;;;;;17.71;75.54;68742.25;5003558;28;20053;-86
2022/06/19 11:09:46;;;;;;;;;;;;;;;17.69;74.25;68739.97;5010023;28;20045;-86
2022/06/19 11:12:32;;;;;;;13.60;2.75;;;;;;;;;;5009641;28;20346;-86
2022/06/19 11:15:00;;;;;;;6.07;2.22;;;;;;;17.75;73.93;68749.50;5030336;28;20555;-86
2022/06/19 11:17:36;;;;;;;13.07;2.50;;;;;;;18.21;72.33;68801.47;5010034;28;20042;-86
2022/06/19 11:20:17;;;;;;;8.52;2.53;;;;;;;;;;5025883;28;20680;-85
2022/06/19 11:22:45;;;;;;;9.10;2.40;;;;;;;18.47;68.89;68819.22;5024195;28;20100;-87
2022/06/19 11:25:23;;;;;;;6.95;2.08;;;;;;;;;;5011739;28;20132;-86
2022/06/19 11:27:54;;;;;;;8.57;2.88;;;;;;;18.53;66.10;68828.78;5004111;28;20111;-84
2022/06/19 11:30:31;;;;;;;9.57;2.13;;;;;;;;;;5018889;28;20041;-86
2022/06/19 11:32:58;;;;;;;12.32;2.63;;;;;;;19.02;68.51;68880.94;4992575;28;20041;-86
2022/06/19 11:35:24;;;;;;;10.23;2.33;;;;;;;18.87;67.32;68874.56;5007748;28;20038;-87
2022/06/19 11:37:56;;;;;;;8.95;2.58;;;;;;;;;;5021209;28;20521;-87
2022/06/19 11:40:38;;;;;;;11.45;2.55;;;;;;;19.33;67.34;68923.28;4992554;28;20053;-86
2022/06/19 11:43:04;;;;;;;10.30;2.17;;;;;;;;;;5008591;28;20137;-87
2022/06/19 11:45:31;;;;;;;8.00;2.35;;;;;;;19.84;64.45;68975.06;5002348;28;20053;-87
2022/06/19 11:47:56;;;;;;;9.68;2.70;;;;;;;19.66;65.87;68959.88;5019607;28;20532;-87
2022/06/19 11:50:24;;;;;;;9.68;3.03;;;;;;;19.56;66.13;68949.59;5017018;28;20079;-87
2022/06/19 11:52:54;;;;;;;9.52;2.50;;;;;;;19.27;66.45;68911.03;5000614;28;20038;-89
2022/06/19 11:55:24;;;;;;;10.55;2.40;;;;;;;19.19;67.38;68901.91;5016044;28;20041;-89
2022/06/19 11:57:54;;;;;;;9.63;2.78;;;;;;;19.03;66.52;68884.75;5014411;28;20107;-87
2022/06/19 12:00:25;;;;;;;10.95;2.40;;;;;;;;;;5017723;28;20121;-88
2022/06/19 12:02:55;;;;;;;12.02;3.00;;;;;;;18.88;69.17;68873.03;5005589;28;20116;-88
2022/06/19 12:05:43;;;;;;;12.98;2.97;;;;;;;18.97;68.63;68882.75;4996961;28;20050;-88
2022/06/19 12:08:18;;;;;;;9.85;3.47;;;;;;;19.08;69.42;68895.88;5013573;28;20080;-88
2022/06/19 12:10:49;;;;;;;9.63;3.55;;;;;;;;;;5003595;28;20053;-88
2022/06/19 12:13:37;;;;;;;9.65;2.88;;;;;;;18.97;68.44;68883.31;5015173;28;20064;-88
2022/06/19 12:16:24;;;;;;;12.15;2.75;;;;;;;18.77;69.74;68861.03;4999430;28;20038;-88
2022/06/19 12:18:50;;;;;;;9.63;2.40;;;;;;;18.90;66.54;68875.88;5004281;28;20057;-87
2022/06/19 12:21:26;;;;;;;7.03;2.50;;;;;;;18.78;64.60;68861.59;5004900;28;20100;-87
2022/06/19 12:23:54;;;;;;;8.57;2.22;;;;;;;;;;5006147;28;20408;-87
2022/06/19 12:26:28;;;;;;;8.83;2.63;;;;;;;18.68;65.44;68845.91;5003024;28;20038;-88